sensor_id;sensor_type;location;lat;lon;timestamp;pressure;altitude;pressure_sealevel;temperature;humidity
28432;BME280;15664;51.302;7.744;2023-02-22T00:00:17;83776.34;;;-146.98;100.00
28432;BME280;15664;51.302;7.744;2023-02-22T00:02:45;83784.47;;;-146.98;100.00
28432;BME280;15664;51.302;7.744;2023-02-22T00:05:13;83804.84;;;-146.98;100.00
28432;BME280;15664;51.302;7.744;2023-02-22T00:07:41;83768.19;;;-146.98;100.00
28432;BME280;15664;51.302;7.744;2023-02-22T00:10:09;83780.41;;;-146.98;100.00
28432;BME280;15664;51.302;7.744;2023-02-22T00:12:41;83794.66;;;-146.98;100.00
28432;BME280;15664;51.302;7.744;2023-02-22T00:15:08;83829.28;;;-146.98;100.00
28432;BME280;15664;51.302;7.744;2023-02-22T00:17:35;83694.88;;;-146.98;100.00
28432;BME280;15664;51.302;7.744;2023-02-22T00:20:01;83831.31;;;-146.98;100.00
28432;BME280;15664;51.302;7.744;2023-02-22T00:22:29;83863.91;;;-146.98;100.00
28432;BME280;15664;51.302;7.744;2023-02-22T00:24:56;83788.56;;;-146.98;100.00
28432;BME280;15664;51.302;7.744;2023-02-22T00:27:21;83829.28;;;-146.98;100.00
28432;BME280;15664;51.302;7.744;2023-02-22T00:29:48;83786.50;;;-146.98;100.00
28432;BME280;15664;51.302;7.744;2023-02-22T00:32:13;83796.69;;;-146.98;100.00
28432;BME280;15664;51.302;7.744;2023-02-22T00:34:40;83821.13;;;-146.98;100.00
28432;BME280;15664;51.302;7.744;2023-02-22T00:37:05;83804.84;;;-146.98;100.00
28432;BME280;15664;51.302;7.744;2023-02-22T00:39:31;83821.13;;;-146.98;100.00
28432;BME280;15664;51.302;7.744;2023-02-22T00:41:57;83806.88;;;-146.98;100.00
28432;BME280;15664;51.302;7.744;2023-02-22T00:44:23;83833.34;;;-146.98;100.00
28432;BME280;15664;51.302;7.744;2023-02-22T00:46:48;83815.03;;;-146.98;100.00
28432;BME280;15664;51.302;7.744;2023-02-22T00:49:14;83817.06;;;-146.98;100.00
28432;BME280;15664;51.302;7.744;2023-02-22T00:51:40;83841.50;;;-146.98;100.00
28432;BME280;15664;51.302;7.744;2023-02-22T00:54:07;83780.41;;;-146.98;100.00
28432;BME280;15664;51.302;7.744;2023-02-22T00:56:33;83800.78;;;-146.98;100.00
28432;BME280;15664;51.302;7.744;2023-02-22T00:58:59;83827.25;;;-146.98;100.00
28432;BME280;15664;51.302;7.744;2023-02-22T01:01:28;83835.41;;;-146.98;100.00
28432;BME280;15664;51.302;7.744;2023-02-22T01:03:54;83823.19;;;-146.98;100.00
28432;BME280;15664;51.302;7.744;2023-02-22T01:06:20;83825.22;;;-146.98;100.00
28432;BME280;15664;51.302;7.744;2023-02-22T01:08:47;83810.97;;;-146.98;100.00
28432;BME280;15664;51.302;7.744;2023-02-22T01:11:14;83802.81;;;-146.98;100.00
28432;BME280;15664;51.302;7.744;2023-02-22T01:13:40;83831.31;;;-146.98;100.00
28432;BME280;15664;51.302;7.744;2023-02-22T01:16:06;83753.94;;;-146.98;100.00
28432;BME280;15664;51.302;7.744;2023-02-22T01:18:36;83825.22;;;-146.98;100.00
28432;BME280;15664;51.302;7.744;2023-02-22T01:21:05;83841.50;;;-146.98;100.00
28432;BME280;15664;51.302;7.744;2023-02-22T01:23:30;83831.31;;;-146.98;100.00
28432;BME280;15664;51.302;7.744;2023-02-22T01:25:56;83835.41;;;-146.98;100.00
28432;BME280;15664;51.302;7.744;2023-02-22T01:28:22;83821.13;;;-146.98;100.00
28432;BME280;15664;51.302;7.744;2023-02-22T01:30:48;83819.09;;;-146.98;100.00
28432;BME280;15664;51.302;7.744;2023-02-22T01:33:15;83882.25;;;-146.98;100.00
28432;BME280;15664;51.302;7.744;2023-02-22T01:35:42;83870.03;;;-146.98;100.00
28432;BME280;15664;51.302;7.744;2023-02-22T01:38:10;83845.59;;;-146.98;100.00
28432;BME280;15664;51.302;7.744;2023-02-22T01:40:40;83829.28;;;-146.98;100.00
28432;BME280;15664;51.302;7.744;2023-02-22T01:45:43;83835.41;;;-146.98;100.00
28432;BME280;15664;51.302;7.744;2023-02-22T01:48:15;83894.47;;;-146.98;100.00
28432;BME280;15664;51.302;7.744;2023-02-22T01:50:49;83865.94;;;-146.98;100.00
28432;BME280;15664;51.302;7.744;2023-02-22T01:53:20;83821.13;;;-146.98;100.00
28432;BME280;15664;51.302;7.744;2023-02-22T01:55:46;83831.31;;;-146.98;100.00
28432;BME280;15664;51.302;7.744;2023-02-22T01:58:14;83855.75;;;-146.98;100.00
28432;BME280;15664;51.302;7.744;2023-02-22T02:00:41;83855.75;;;-146.98;100.00
28432;BME280;15664;51.302;7.744;2023-02-22T02:03:14;83861.88;;;-146.98;100.00
28432;BME280;15664;51.302;7.744;2023-02-22T02:05:43;83776.34;;;-146.98;100.00
28432;BME280;15664;51.302;7.744;2023-02-22T02:08:24;83870.03;;;-146.98;100.00
28432;BME280;15664;51.302;7.744;2023-02-22T02:10:54;83849.66;;;-146.98;100.00
28432;BME280;15664;51.302;7.744;2023-02-22T02:13:21;83831.31;;;-146.98;100.00
28432;BME280;15664;51.302;7.744;2023-02-22T02:15:46;83851.69;;;-146.98;100.00
28432;BME280;15664;51.302;7.744;2023-02-22T02:18:14;83831.31;;;-146.98;100.00
28432;BME280;15664;51.302;7.744;2023-02-22T02:20:57;83865.94;;;-146.98;100.00
28432;BME280;15664;51.302;7.744;2023-02-22T02:23:51;83853.72;;;-146.98;100.00
28432;BME280;15664;51.302;7.744;2023-02-22T02:32:37;83861.88;;;-146.98;100.00
28432;BME280;15664;51.302;7.744;2023-02-22T02:37:56;83821.13;;;-146.98;100.00
28432;BME280;15664;51.302;7.744;2023-02-22T02:40:34;83843.53;;;-146.98;100.00
28432;BME280;15664;51.302;7.744;2023-02-22T02:43:26;83868.00;;;-146.98;100.00
28432;BME280;15664;51.302;7.744;2023-02-22T02:48:25;83847.63;;;-146.98;100.00
28432;BME280;15664;51.302;7.744;2023-02-22T02:50:54;83821.13;;;-146.98;100.00
28432;BME280;15664;51.302;7.744;2023-02-22T02:53:24;83813.00;;;-146.98;100.00
28432;BME280;15664;51.302;7.744;2023-02-22T02:55:52;83825.22;;;-146.98;100.00
28432;BME280;15664;51.302;7.744;2023-02-22T02:58:20;83837.44;;;-146.98;100.00
28432;BME280;15664;51.302;7.744;2023-02-22T03:00:50;83817.06;;;-146.98;100.00
28432;BME280;15664;51.302;7.744;2023-02-22T03:03:30;83874.09;;;-146.98;100.00
28432;BME280;15664;51.302;7.744;2023-02-22T03:06:19;83810.97;;;-146.98;100.00
28432;BME280;15664;51.302;7.744;2023-02-22T03:09:20;83829.28;;;-146.98;100.00
28432;BME280;15664;51.302;7.744;2023-02-22T03:12:24;83853.72;;;-146.98;100.00
28432;BME280;15664;51.302;7.744;2023-02-22T03:15:05;83813.00;;;-146.98;100.00
28432;BME280;15664;51.302;7.744;2023-02-22T03:17:48;83855.75;;;-146.98;100.00
28432;BME280;15664;51.302;7.744;2023-02-22T03:20:42;83813.00;;;-146.98;100.00
28432;BME280;15664;51.302;7.744;2023-02-22T03:23:25;83914.84;;;-146.98;100.00
28432;BME280;15664;51.302;7.744;2023-02-22T03:26:01;83859.84;;;-146.98;100.00
28432;BME280;15664;51.302;7.744;2023-02-22T03:28:29;83859.84;;;-146.98;100.00
28432;BME280;15664;51.302;7.744;2023-02-22T03:31:01;83914.84;;;-146.98;100.00
28432;BME280;15664;51.302;7.744;2023-02-22T03:33:34;83918.91;;;-146.98;100.00
28432;BME280;15664;51.302;7.744;2023-02-22T03:36:25;83880.22;;;-146.98;100.00
28432;BME280;15664;51.302;7.744;2023-02-22T03:38:52;83890.38;;;-146.98;100.00
28432;BME280;15664;51.302;7.744;2023-02-22T03:41:22;83922.97;;;-146.98;100.00
28432;BME280;15664;51.302;7.744;2023-02-22T03:43:55;83902.63;;;-146.98;100.00
28432;BME280;15664;51.302;7.744;2023-02-22T03:46:25;83857.81;;;-146.98;100.00
28432;BME280;15664;51.302;7.744;2023-02-22T03:49:11;83888.34;;;-146.98;100.00
28432;BME280;15664;51.302;7.744;2023-02-22T03:51:40;83943.34;;;-146.98;100.00
28432;BME280;15664;51.302;7.744;2023-02-22T03:54:07;83878.16;;;-146.98;100.00
28432;BME280;15664;51.302;7.744;2023-02-22T03:56:39;83931.13;;;-146.98;100.00
28432;BME280;15664;51.302;7.744;2023-02-22T03:59:12;83833.34;;;-146.98;100.00
28432;BME280;15664;51.302;7.744;2023-02-22T04:01:38;83920.94;;;-146.98;100.00
28432;BME280;15664;51.302;7.744;2023-02-22T04:04:04;83896.50;;;-146.98;100.00
28432;BME280;15664;51.302;7.744;2023-02-22T04:06:30;83868.00;;;-146.98;100.00
28432;BME280;15664;51.302;7.744;2023-02-22T04:08:56;83827.25;;;-146.98;100.00
28432;BME280;15664;51.302;7.744;2023-02-22T04:11:22;83878.16;;;-146.98;100.00
28432;BME280;15664;51.302;7.744;2023-02-22T04:13:48;83865.94;;;-146.98;100.00
28432;BME280;15664;51.302;7.744;2023-02-22T04:16:14;83851.69;;;-146.98;100.00
28432;BME280;15664;51.302;7.744;2023-02-22T04:18:39;83815.03;;;-146.98;100.00
28432;BME280;15664;51.302;7.744;2023-02-22T04:21:05;83833.34;;;-146.98;100.00
28432;BME280;15664;51.302;7.744;2023-02-22T04:23:38;83870.03;;;-146.98;100.00
28432;BME280;15664;51.302;7.744;2023-02-22T04:26:04;83798.75;;;-146.98;100.00
28432;BME280;15664;51.302;7.744;2023-02-22T04:28:31;83821.13;;;-146.98;100.00
28432;BME280;15664;51.302;7.744;2023-02-22T04:31:12;83796.69;;;-146.98;100.00
28432;BME280;15664;51.302;7.744;2023-02-22T04:33:38;83755.97;;;-146.98;100.00
28432;BME280;15664;51.302;7.744;2023-02-22T04:36:04;83776.34;;;-146.98;100.00
28432;BME280;15664;51.302;7.744;2023-02-22T04:38:33;83774.28;;;-146.98;100.00
28432;BME280;15664;51.302;7.744;2023-02-22T04:40:59;83782.44;;;-146.98;100.00
28432;BME280;15664;51.302;7.744;2023-02-22T04:43:25;83780.41;;;-146.98;100.00
28432;BME280;15664;51.302;7.744;2023-02-22T04:45:56;83776.34;;;-146.98;100.00
28432;BME280;15664;51.302;7.744;2023-02-22T04:48:22;83804.84;;;-146.98;100.00
28432;BME280;15664;51.302;7.744;2023-02-22T04:50:47;83772.25;;;-146.98;100.00
28432;BME280;15664;51.302;7.744;2023-02-22T04:53:14;83804.84;;;-146.98;100.00
28432;BME280;15664;51.302;7.744;2023-02-22T04:55:40;83833.34;;;-146.98;100.00
28432;BME280;15664;51.302;7.744;2023-02-22T04:58:06;83800.78;;;-146.98;100.00
28432;BME280;15664;51.302;7.744;2023-02-22T05:00:31;83833.34;;;-146.98;100.00
28432;BME280;15664;51.302;7.744;2023-02-22T05:03:00;83798.75;;;-146.98;100.00
28432;BME280;15664;51.302;7.744;2023-02-22T05:05:25;83792.63;;;-146.98;100.00
28432;BME280;15664;51.302;7.744;2023-02-22T05:07:51;83768.19;;;-146.98;100.00
28432;BME280;15664;51.302;7.744;2023-02-22T05:10:18;83796.69;;;-146.98;100.00
28432;BME280;15664;51.302;7.744;2023-02-22T05:12:43;83808.91;;;-146.98;100.00
28432;BME280;15664;51.302;7.744;2023-02-22T05:15:09;83829.28;;;-146.98;100.00
28432;BME280;15664;51.302;7.744;2023-02-22T05:17:35;83808.91;;;-146.98;100.00
28432;BME280;15664;51.302;7.744;2023-02-22T05:20:02;83790.59;;;-146.98;100.00
28432;BME280;15664;51.302;7.744;2023-02-22T05:22:29;83810.97;;;-146.98;100.00
28432;BME280;15664;51.302;7.744;2023-02-22T05:24:54;83817.06;;;-146.98;100.00
28432;BME280;15664;51.302;7.744;2023-02-22T05:27:21;83829.28;;;-146.98;100.00
28432;BME280;15664;51.302;7.744;2023-02-22T05:29:47;83817.06;;;-146.98;100.00
28432;BME280;15664;51.302;7.744;2023-02-22T05:32:12;83792.63;;;-146.98;100.00
28432;BME280;15664;51.302;7.744;2023-02-22T05:34:38;83788.56;;;-146.98;100.00
28432;BME280;15664;51.302;7.744;2023-02-22T05:37:04;83817.06;;;-146.98;100.00
28432;BME280;15664;51.302;7.744;2023-02-22T05:39:30;83882.25;;;-146.98;100.00
28432;BME280;15664;51.302;7.744;2023-02-22T05:41:56;83829.28;;;-146.98;100.00
28432;BME280;15664;51.302;7.744;2023-02-22T05:44:21;83890.38;;;-146.98;100.00
28432;BME280;15664;51.302;7.744;2023-02-22T05:46:47;83855.75;;;-146.98;100.00
28432;BME280;15664;51.302;7.744;2023-02-22T05:49:12;83825.22;;;-146.98;100.00
28432;BME280;15664;51.302;7.744;2023-02-22T05:51:38;83792.63;;;-146.98;100.00
28432;BME280;15664;51.302;7.744;2023-02-22T05:54:03;83804.84;;;-146.98;100.00
28432;BME280;15664;51.302;7.744;2023-02-22T05:56:29;83764.13;;;-146.98;100.00
28432;BME280;15664;51.302;7.744;2023-02-22T05:58:56;83788.56;;;-146.98;100.00
28432;BME280;15664;51.302;7.744;2023-02-22T06:01:23;83847.63;;;-146.98;100.00
28432;BME280;15664;51.302;7.744;2023-02-22T06:03:49;83831.31;;;-146.98;100.00
28432;BME280;15664;51.302;7.744;2023-02-22T06:06:17;83798.75;;;-146.98;100.00
28432;BME280;15664;51.302;7.744;2023-02-22T06:08:43;83817.06;;;-146.98;100.00
28432;BME280;15664;51.302;7.744;2023-02-22T06:11:09;83821.13;;;-146.98;100.00
28432;BME280;15664;51.302;7.744;2023-02-22T06:13:35;83808.91;;;-146.98;100.00
28432;BME280;15664;51.302;7.744;2023-02-22T06:16:02;83751.91;;;-146.98;100.00
28432;BME280;15664;51.302;7.744;2023-02-22T06:18:28;83774.28;;;-146.98;100.00
28432;BME280;15664;51.302;7.744;2023-02-22T06:20:56;83821.13;;;-146.98;100.00
28432;BME280;15664;51.302;7.744;2023-02-22T06:23:22;83796.69;;;-146.98;100.00
28432;BME280;15664;51.302;7.744;2023-02-22T06:25:48;83774.28;;;-146.98;100.00
28432;BME280;15664;51.302;7.744;2023-02-22T06:28:14;83768.19;;;-146.98;100.00
28432;BME280;15664;51.302;7.744;2023-02-22T06:30:40;83747.81;;;-146.98;100.00
28432;BME280;15664;51.302;7.744;2023-02-22T06:33:08;83784.47;;;-146.98;100.00
28432;BME280;15664;51.302;7.744;2023-02-22T06:35:34;83774.28;;;-146.98;100.00
28432;BME280;15664;51.302;7.744;2023-02-22T06:37:59;83768.19;;;-146.98;100.00
28432;BME280;15664;51.302;7.744;2023-02-22T06:40:25;83749.84;;;-146.98;100.00
28432;BME280;15664;51.302;7.744;2023-02-22T06:42:55;83798.75;;;-146.98;100.00
28432;BME280;15664;51.302;7.744;2023-02-22T06:45:20;83743.75;;;-146.98;100.00
28432;BME280;15664;51.302;7.744;2023-02-22T06:47:46;83762.06;;;-146.98;100.00
28432;BME280;15664;51.302;7.744;2023-02-22T06:50:23;83762.06;;;-146.98;100.00
28432;BME280;15664;51.302;7.744;2023-02-22T06:52:49;83780.41;;;-146.98;100.00
28432;BME280;15664;51.302;7.744;2023-02-22T06:55:17;83731.53;;;-146.98;100.00
28432;BME280;15664;51.302;7.744;2023-02-22T06:57:43;83717.28;;;-146.98;100.00
28432;BME280;15664;51.302;7.744;2023-02-22T07:00:08;83755.97;;;-146.98;100.00
28432;BME280;15664;51.302;7.744;2023-02-22T07:02:34;83770.22;;;-146.98;100.00
28432;BME280;15664;51.302;7.744;2023-02-22T07:04:59;83721.34;;;-146.98;100.00
28432;BME280;15664;51.302;7.744;2023-02-22T07:07:25;83690.78;;;-146.98;100.00
28432;BME280;15664;51.302;7.744;2023-02-22T07:09:50;83715.22;;;-146.98;100.00
28432;BME280;15664;51.302;7.744;2023-02-22T07:12:15;83713.19;;;-146.98;100.00
28432;BME280;15664;51.302;7.744;2023-02-22T07:14:41;83709.13;;;-146.98;100.00
28432;BME280;15664;51.302;7.744;2023-02-22T07:17:06;83684.69;;;-146.98;100.00
28432;BME280;15664;51.302;7.744;2023-02-22T07:19:32;83686.72;;;-146.98;100.00
28432;BME280;15664;51.302;7.744;2023-02-22T07:21:57;83666.34;;;-146.98;100.00
28432;BME280;15664;51.302;7.744;2023-02-22T07:24:24;83613.41;;;-146.98;100.00
28432;BME280;15664;51.302;7.744;2023-02-22T07:26:51;83601.19;;;-146.98;100.00
28432;BME280;15664;51.302;7.744;2023-02-22T07:29:16;83566.56;;;-146.98;100.00
28432;BME280;15664;51.302;7.744;2023-02-22T07:31:42;83560.44;;;-146.98;100.00
28432;BME280;15664;51.302;7.744;2023-02-22T07:34:07;83623.56;;;-146.98;100.00
28432;BME280;15664;51.302;7.744;2023-02-22T07:36:32;83544.16;;;-146.98;100.00
28432;BME280;15664;51.302;7.744;2023-02-22T07:38:58;83544.16;;;-146.98;100.00
28432;BME280;15664;51.302;7.744;2023-02-22T07:41:24;83487.13;;;-146.98;100.00
28432;BME280;15664;51.302;7.744;2023-02-22T07:43:49;83485.09;;;-146.98;100.00
28432;BME280;15664;51.302;7.744;2023-02-22T07:46:15;83438.25;;;-146.98;100.00
28432;BME280;15664;51.302;7.744;2023-02-22T07:48:40;83389.38;;;-146.98;100.00
28432;BME280;15664;51.302;7.744;2023-02-22T07:51:06;83381.22;;;-146.98;100.00
28432;BME280;15664;51.302;7.744;2023-02-22T07:53:31;83336.41;;;-146.98;100.00
28432;BME280;15664;51.302;7.744;2023-02-22T07:55:59;83291.63;;;-146.98;100.00
28432;BME280;15664;51.302;7.744;2023-02-22T07:58:28;83271.25;;;-146.98;100.00
28432;BME280;15664;51.302;7.744;2023-02-22T08:00:53;83238.66;;;-146.98;100.00
28432;BME280;15664;51.302;7.744;2023-02-22T08:03:21;83271.25;;;-146.98;100.00
28432;BME280;15664;51.302;7.744;2023-02-22T08:05:50;83230.53;;;-146.98;100.00
28432;BME280;15664;51.302;7.744;2023-02-22T08:08:16;83238.66;;;-146.98;100.00
28432;BME280;15664;51.302;7.744;2023-02-22T08:10:42;83179.63;;;-146.98;100.00
28432;BME280;15664;51.302;7.744;2023-02-22T08:13:09;83171.47;;;-146.98;100.00
28432;BME280;15664;51.302;7.744;2023-02-22T08:15:40;83071.69;;;-146.98;100.00
28432;BME280;15664;51.302;7.744;2023-02-22T08:18:12;83059.47;;;-146.98;100.00
28432;BME280;15664;51.302;7.744;2023-02-22T08:20:40;83004.50;;;-146.98;100.00
28432;BME280;15664;51.302;7.744;2023-02-22T08:23:07;82959.69;;;-146.98;100.00
28432;BME280;15664;51.302;7.744;2023-02-22T08:25:32;82973.94;;;-146.98;97.22
28432;BME280;15664;51.302;7.744;2023-02-22T08:28:04;82943.41;;;-146.98;100.00
28432;BME280;15664;51.302;7.744;2023-02-22T08:30:30;82933.22;;;-146.98;100.00
28432;BME280;15664;51.302;7.744;2023-02-22T08:32:56;82896.56;;;-146.98;91.89
28432;BME280;15664;51.302;7.744;2023-02-22T08:35:23;82817.16;;;-146.98;79.51
28432;BME280;15664;51.302;7.744;2023-02-22T08:37:51;82821.22;;;-146.98;80.78
28432;BME280;15664;51.302;7.744;2023-02-22T08:40:20;82806.97;;;-146.98;69.92
28432;BME280;15664;51.302;7.744;2023-02-22T08:42:46;82837.50;;;-146.98;72.22
28432;BME280;15664;51.302;7.744;2023-02-22T08:45:12;82847.69;;;-146.98;72.52
28432;BME280;15664;51.302;7.744;2023-02-22T08:47:38;82737.72;;;-146.98;70.88
28432;BME280;15664;51.302;7.744;2023-02-22T08:50:05;82749.94;;;-146.98;67.68
28432;BME280;15664;51.302;7.744;2023-02-22T08:52:31;82607.41;;;-146.98;68.92
28432;BME280;15664;51.302;7.744;2023-02-22T08:54:56;82635.94;;;-146.98;68.14
28432;BME280;15664;51.302;7.744;2023-02-22T08:57:22;82613.53;;;-146.98;62.41
28432;BME280;15664;51.302;7.744;2023-02-22T08:59:48;82625.75;;;-146.98;65.61
28432;BME280;15664;51.302;7.744;2023-02-22T09:02:16;82591.13;;;-146.98;67.67
28432;BME280;15664;51.302;7.744;2023-02-22T09:04:42;82597.25;;;-146.98;63.68
28432;BME280;15664;51.302;7.744;2023-02-22T09:07:08;82507.66;;;-146.98;59.78
28432;BME280;15664;51.302;7.744;2023-02-22T09:09:34;82477.09;;;-146.98;61.40
28432;BME280;15664;51.302;7.744;2023-02-22T09:12:00;82550.41;;;-146.98;62.04
28432;BME280;15664;51.302;7.744;2023-02-22T09:14:25;82688.88;;;-146.98;67.38
28432;BME280;15664;51.302;7.744;2023-02-22T09:16:51;82705.16;;;-146.98;72.29
28432;BME280;15664;51.302;7.744;2023-02-22T09:19:16;82778.47;;;-146.98;72.67
28432;BME280;15664;51.302;7.744;2023-02-22T09:21:42;82782.53;;;-146.98;74.20
28432;BME280;15664;51.302;7.744;2023-02-22T09:24:07;82868.06;;;-146.98;72.31
28432;BME280;15664;51.302;7.744;2023-02-22T09:26:34;82841.59;;;-146.98;75.28
28432;BME280;15664;51.302;7.744;2023-02-22T09:29:05;82815.13;;;-146.98;74.32
28432;BME280;15664;51.302;7.744;2023-02-22T09:31:35;82819.19;;;-146.98;73.88
28432;BME280;15664;51.302;7.744;2023-02-22T09:34:01;82784.56;;;-146.98;72.56
28432;BME280;15664;51.302;7.744;2023-02-22T09:36:27;82823.25;;;-146.98;73.52
28432;BME280;15664;51.302;7.744;2023-02-22T09:38:52;82697.00;;;-146.98;73.61
28432;BME280;15664;51.302;7.744;2023-02-22T09:41:24;82619.63;;;-146.98;65.82
28432;BME280;15664;51.302;7.744;2023-02-22T09:44:15;82583.00;;;-146.98;62.60
28432;BME280;15664;51.302;7.744;2023-02-22T09:46:44;82525.97;;;-146.98;60.92
28432;BME280;15664;51.302;7.744;2023-02-22T09:49:30;82513.75;;;-146.98;60.52
28432;BME280;15664;51.302;7.744;2023-02-22T09:52:04;82367.16;;;-146.98;57.66
28432;BME280;15664;51.302;7.744;2023-02-22T09:57:06;82283.69;;;-146.98;52.55
28432;BME280;15664;51.302;7.744;2023-02-22T09:59:39;82275.53;;;-146.98;52.76
28432;BME280;15664;51.302;7.744;2023-02-22T10:02:15;82283.69;;;-146.98;51.06
28432;BME280;15664;51.302;7.744;2023-02-22T10:04:48;82185.97;;;-146.98;49.23
28432;BME280;15664;51.302;7.744;2023-02-22T10:07:27;82151.34;;;-146.98;47.41
28432;BME280;15664;51.302;7.744;2023-02-22T10:09:56;82151.34;;;-146.98;47.06
28432;BME280;15664;51.302;7.744;2023-02-22T10:12:29;82173.75;;;-146.98;47.67
28432;BME280;15664;51.302;7.744;2023-02-22T10:15:32;82157.47;;;-146.98;48.72
28432;BME280;15664;51.302;7.744;2023-02-22T10:18:33;82141.16;;;-146.98;47.51
28432;BME280;15664;51.302;7.744;2023-02-22T10:21:20;82137.09;;;-146.98;48.28
28432;BME280;15664;51.302;7.744;2023-02-22T10:26:39;82078.06;;;-146.98;47.13
28432;BME280;15664;51.302;7.744;2023-02-22T10:29:26;82094.34;;;-146.98;46.03
28432;BME280;15664;51.302;7.744;2023-02-22T10:31:57;82155.41;;;-146.98;46.45
28432;BME280;15664;51.302;7.744;2023-02-22T10:34:26;82155.41;;;-146.98;46.24
28432;BME280;15664;51.302;7.744;2023-02-22T10:36:58;82194.09;;;-146.98;48.77
28432;BME280;15664;51.302;7.744;2023-02-22T10:39:32;82181.88;;;-146.98;47.39
28432;BME280;15664;51.302;7.744;2023-02-22T10:42:02;82159.50;;;-146.98;46.64
28432;BME280;15664;51.302;7.744;2023-02-22T10:44:32;82159.50;;;-146.98;47.32
28432;BME280;15664;51.302;7.744;2023-02-22T10:46:59;82120.81;;;-146.98;46.62
28432;BME280;15664;51.302;7.744;2023-02-22T10:49:29;82141.16;;;-146.98;45.70
28432;BME280;15664;51.302;7.744;2023-02-22T10:51:59;82183.94;;;-146.98;46.64
28432;BME280;15664;51.302;7.744;2023-02-22T10:54:31;82165.59;;;-146.98;46.24
28432;BME280;15664;51.302;7.744;2023-02-22T10:56:57;82194.09;;;-146.98;47.86
28432;BME280;15664;51.302;7.744;2023-02-22T11:01:51;82198.19;;;-146.98;48.66
28432;BME280;15664;51.302;7.744;2023-02-22T11:04:19;82214.47;;;-146.98;48.61
28432;BME280;15664;51.302;7.744;2023-02-22T11:06:48;82169.69;;;-146.98;48.33
28432;BME280;15664;51.302;7.744;2023-02-22T11:09:16;82165.59;;;-146.98;49.00
28432;BME280;15664;51.302;7.744;2023-02-22T11:11:44;82108.59;;;-146.98;47.94
28432;BME280;15664;51.302;7.744;2023-02-22T11:14:14;82069.91;;;-146.98;48.28
28432;BME280;15664;51.302;7.744;2023-02-22T11:16:51;82067.88;;;-146.98;46.03
28432;BME280;15664;51.302;7.744;2023-02-22T11:19:28;82031.22;;;-146.98;47.47
28432;BME280;15664;51.302;7.744;2023-02-22T11:24:32;81988.47;;;-146.98;45.62
28432;BME280;15664;51.302;7.744;2023-02-22T11:27:00;81931.47;;;-146.98;43.90
28432;BME280;15664;51.302;7.744;2023-02-22T11:29:29;82002.72;;;-146.98;44.63
28432;BME280;15664;51.302;7.744;2023-02-22T11:32:00;82000.69;;;-146.98;44.19
28432;BME280;15664;51.302;7.744;2023-02-22T11:34:33;82021.06;;;-146.98;43.78
28432;BME280;15664;51.302;7.744;2023-02-22T11:37:22;82012.91;;;-146.98;44.67
28432;BME280;15664;51.302;7.744;2023-02-22T11:40:12;81953.88;;;-146.98;45.11
28432;BME280;15664;51.302;7.744;2023-02-22T11:42:39;82021.06;;;-146.98;44.42
28432;BME280;15664;51.302;7.744;2023-02-22T11:45:19;81951.84;;;-146.98;44.88
28432;BME280;15664;51.302;7.744;2023-02-22T11:47:58;81988.47;;;-146.98;44.67
28432;BME280;15664;51.302;7.744;2023-02-22T11:50:39;81921.31;;;-146.98;45.12
28432;BME280;15664;51.302;7.744;2023-02-22T11:56:17;81947.75;;;-146.98;42.95
28432;BME280;15664;51.302;7.744;2023-02-22T12:01:46;81803.22;;;-146.98;41.44
28432;BME280;15664;51.302;7.744;2023-02-22T12:10:44;81876.50;;;-146.98;41.71
28432;BME280;15664;51.302;7.744;2023-02-22T12:13:36;81835.81;;;-146.98;43.21
28432;BME280;15664;51.302;7.744;2023-02-22T12:21:42;81685.16;;;-146.98;40.75
28432;BME280;15664;51.302;7.744;2023-02-22T12:24:24;81638.34;;;-146.98;39.35
28432;BME280;15664;51.302;7.744;2023-02-22T12:27:05;81719.75;;;-146.98;39.15
28432;BME280;15664;51.302;7.744;2023-02-22T12:32:15;81587.44;;;-146.98;39.80
28432;BME280;15664;51.302;7.744;2023-02-22T12:35:23;81499.91;;;-146.98;38.62
28432;BME280;15664;51.302;7.744;2023-02-22T12:38:00;81518.25;;;-146.98;38.56
28432;BME280;15664;51.302;7.744;2023-02-22T12:43:23;81392.03;;;-146.98;37.64
28432;BME280;15664;51.302;7.744;2023-02-22T12:45:59;81394.06;;;-146.98;37.76
28432;BME280;15664;51.302;7.744;2023-02-22T12:48:35;81284.16;;;-146.98;37.77
28432;BME280;15664;51.302;7.744;2023-02-22T12:53:39;81375.75;;;-146.98;36.90
28432;BME280;15664;51.302;7.744;2023-02-22T12:56:30;81308.56;;;-146.98;36.11
28432;BME280;15664;51.302;7.744;2023-02-22T12:59:06;81243.44;;;-146.98;36.10
28432;BME280;15664;51.302;7.744;2023-02-22T13:01:41;81157.94;;;-146.98;35.84
28432;BME280;15664;51.302;7.744;2023-02-22T13:04:09;81109.09;;;-146.98;34.54
28432;BME280;15664;51.302;7.744;2023-02-22T13:06:42;81090.78;;;-146.98;34.20
28432;BME280;15664;51.302;7.744;2023-02-22T13:15:17;81027.69;;;-146.98;34.15
28432;BME280;15664;51.302;7.744;2023-02-22T13:20:19;81149.81;;;-146.98;34.61
28432;BME280;15664;51.302;7.744;2023-02-22T13:23:02;81259.72;;;-146.98;35.40
28432;BME280;15664;51.302;7.744;2023-02-22T13:25:50;81225.13;;;-146.98;36.40
28432;BME280;15664;51.302;7.744;2023-02-22T13:28:40;81103.00;;;-146.98;35.35
28432;BME280;15664;51.302;7.744;2023-02-22T13:34:30;81219.00;;;-146.98;35.80
28432;BME280;15664;51.302;7.744;2023-02-22T13:47:54;81276.00;;;-146.98;36.40
28432;BME280;15664;51.302;7.744;2023-02-22T13:53:06;81447.00;;;-146.98;37.85
28432;BME280;15664;51.302;7.744;2023-02-22T13:55:47;81552.84;;;-146.98;38.74
28432;BME280;15664;51.302;7.744;2023-02-22T13:58:16;81638.34;;;-146.98;39.40
28432;BME280;15664;51.302;7.744;2023-02-22T14:00:51;81687.19;;;-146.98;39.98
28432;BME280;15664;51.302;7.744;2023-02-22T14:05:50;81817.47;;;-146.98;41.70